Latest Coastal Weather Observations for Cooktown

IDQ60701

Issued at 4:25 pm EST Saturday 29 November 2014 (issued every 10 minutes, with the page automatically refreshed every 10 minutes)

About coastal observations | Map of coastal stations | Coastal observations for QLD | Marine services | Other Formats
Station Details ID: 031209 Name: COOKTOWN AIRPORT Lat: -15.45 Lon: 145.19 Height: 4.8 m
Data from the previous 72 hours. | See also: Recent months at Cooktown
Date/Time
EST
Temp

°C
Wind Pressure Rain
since 9am
mm
Weather Cloud Vis
km
Sea
Height
m
Swell
Dir
 
Speed
knots
Gust
knots
hPa Trend Height
m
Period
s
Dir
29/04:00pm 29.6 ESE 14 21 1008.6 - 0.0 - Partly cloudy 10 - - - -
29/03:30pm 29.8 SE 11 17 1008.6 - 0.0 - Partly cloudy 10 - - - -
29/03:00pm 29.8 SE 11 17 1008.7 - 0.0 - Cloudy 10 - - - -
29/02:30pm 30.4 ESE 12 19 1009.0 - 0.0 - Partly cloudy 10 - - - -
29/02:00pm 30.3 ESE 14 21 1009.1 - 0.0 - Partly cloudy 10 - - - -
29/01:30pm 30.8 ESE 13 18 1009.5 - 0.0 - Partly cloudy 10 - - - -
29/01:00pm 30.5 SE 13 20 1009.7 - 0.0 - Partly cloudy 10 - - - -
29/12:30pm 30.4 ESE 12 20 1009.9 - 0.0 - Partly cloudy 10 - - - -
29/12:00pm 29.4 ESE 14 18 1010.2 - 0.0 - Cloudy 10 - - - -
29/11:30am 29.9 ESE 14 19 1010.5 - 0.0 - Partly cloudy 10 - - - -
29/11:00am 31.0 ESE 11 17 1010.9 - 0.0 - Partly cloudy 10 - - - -
29/10:30am 30.1 ESE 12 21 1011.2 - 0.0 - Partly cloudy 10 - - - -
29/10:00am 29.4 ESE 12 18 1011.4 - 0.0 - Partly cloudy 10 - - - -
29/09:30am 29.6 ESE 13 18 1011.5 - 0.0 - Partly cloudy 10 - - - -
29/09:00am 29.3 ESE 11 15 1011.6 R 0.0 Fine Mostly clear 35 - - - -
29/08:30am 28.8 SE 11 16 1011.4 - 0.0 - Partly cloudy 10 - - - -
29/08:00am 28.9 ESE 11 16 1011.2 - 0.0 - Partly cloudy 10 - - - -
29/07:30am 28.8 ESE 12 17 1010.7 - 0.0 - Partly cloudy 10 - - - -
29/07:00am 27.6 ESE 13 19 1010.6 - 0.0 - Partly cloudy 10 - - - -
29/06:30am 26.8 ESE 9 13 1010.3 - 0.0 - Partly cloudy 10 - - - -
29/06:00am 25.9 ESE 9 13 1010.0 - 0.0 - Mostly clear 10 - - - -
29/05:30am 25.4 SE 7 10 1009.7 - 0.0 - Partly cloudy 10 - - - -
29/05:00am 25.7 ESE 9 13 1009.4 - 0.0 - Partly cloudy 10 - - - -
29/04:30am 25.7 SE 8 13 1009.2 - 0.0 - Partly cloudy 10 - - - -
29/04:00am 25.8 SE 9 13 1008.9 - 0.0 - Partly cloudy 10 - - - -
29/03:30am 25.7 ESE 8 12 1009.0 - 0.0 - Partly cloudy 10 - - - -
29/03:00am 25.8 ESE 9 15 1009.0 - 0.0 - Partly cloudy 10 - - - -
29/02:30am 25.7 ESE 9 15 1009.0 - 0.0 - Partly cloudy 10 - - - -
29/02:00am 25.9 ESE 9 13 1009.1 - 0.0 - Partly cloudy 10 - - - -
29/01:30am 25.5 ESE 8 11 1009.5 - 0.0 - - 10 - - - -
29/01:00am 25.9 ESE 10 15 1009.8 - 0.0 - Partly cloudy 10 - - - -
29/12:30am 26.2 ESE 11 20 1010.3 - 0.0 - Partly cloudy 10 - - - -
29/12:00am 26.2 ESE 10 18 1010.6 - 0.0 - Cloudy 10 - - - -
 
Date/Time
EST
Temp

°C
Wind Pressure Rain
since 9am
mm
Weather Cloud Vis
km
Sea
Height
m
Swell
Dir
 
Speed
knots
Gust
knots
hPa Trend Height
m
Period
s
Dir
28/11:30pm 26.3 ESE 8 13 1011.0 - 0.0 - Partly cloudy 10 - - - -
28/11:00pm 26.4 ESE 9 15 1011.2 - 0.0 - Partly cloudy 10 - - - -
28/10:30pm 26.4 ESE 10 15 1011.4 - 0.0 - Partly cloudy 10 - - - -
28/10:00pm 26.4 ESE 9 14 1011.2 - 0.0 - - 10 - - - -
28/09:30pm 26.4 ESE 11 19 1011.1 - 0.0 - - 10 - - - -
28/09:00pm 26.2 ESE 9 14 1011.1 - 0.0 - Mostly clear 10 - - - -
28/08:30pm 26.4 ESE 12 18 1011.0 - 0.0 - Partly cloudy 10 - - - -
28/08:00pm 26.2 ESE 9 14 1010.9 - 0.0 - Partly cloudy 10 - - - -
28/07:30pm 26.3 ESE 8 13 1010.7 - 0.0 - Partly cloudy 10 - - - -
28/07:00pm 26.1 ESE 9 11 1010.5 - 0.0 - Partly cloudy 10 - - - -
28/06:30pm 26.7 ESE 9 14 1010.4 - 0.0 - Partly cloudy 10 - - - -
28/06:00pm 27.2 ESE 12 16 1010.2 - 0.0 - Cloudy 10 - - - -
28/05:30pm 28.3 E 14 18 1010.0 - 0.0 - Partly cloudy 10 - - - -
28/05:00pm 27.7 ESE 14 19 1009.7 - 0.0 - Partly cloudy 10 - - - -
28/04:30pm 28.0 ESE 15 21 1009.6 - 0.0 - Partly cloudy 10 - - - -
28/04:00pm 28.8 E 15 20 1009.3 - 0.0 - Partly cloudy 10 - - - -
28/03:30pm 28.8 E 17 23 1009.2 - 0.0 - Partly cloudy 10 - - - -
28/03:00pm 29.6 E 16 21 1009.2 R 0.0 Fine Mostly clear 40 - - - -
28/02:30pm 29.4 ESE 14 22 1009.7 - 0.0 - Partly cloudy 10 - - - -
28/02:00pm 29.3 E 18 26 1009.9 - 0.0 - Partly cloudy 10 - - - -
28/01:30pm 31.3 E 14 19 1010.2 - 0.0 - Partly cloudy 10 - - - -
28/01:00pm 30.7 E 15 20 1010.5 - 0.0 - Partly cloudy 10 - - - -
28/12:30pm 30.2 E 15 21 1010.6 - 0.0 - Partly cloudy 10 - - - -
28/12:00pm 30.7 ESE 16 22 1010.7 - 0.0 - Partly cloudy 10 - - - -
28/11:30am 30.7 E 16 22 1011.1 - 0.0 - Partly cloudy 10 - - - -
28/11:00am 29.4 E 14 19 1011.5 - 0.0 - Partly cloudy 10 - - - -
28/10:30am 31.5 E 13 18 1011.5 - 0.0 - Partly cloudy 10 - - - -
28/10:00am 30.8 E 14 19 1011.9 - 0.0 - Partly cloudy 10 - - - -
28/09:30am 28.7 ESE 11 16 1011.8 - 0.0 - Partly cloudy 10 - - - -
28/09:00am 29.5 ESE 11 18 1011.8 R 0.2 Fine Partly cloudy 30 - - - -
28/08:30am 28.3 SE 10 14 1011.9 - 0.2 - Partly cloudy 10 - - - -
28/08:00am 27.7 SE 10 14 1011.5 - 0.2 - Partly cloudy 10 - - - -
28/07:30am 28.5 E 13 16 1011.3 - 0.2 - Partly cloudy 10 - - - -
28/07:00am 26.8 ESE 11 14 1011.0 - 0.2 - Partly cloudy 10 - - - -
28/06:30am 26.5 ESE 10 14 1010.7 - 0.2 - Partly cloudy 10 - - - -
28/06:00am 26.0 ESE 9 14 1010.3 - 0.2 - Mostly clear 10 - - - -
28/05:30am 25.9 ESE 10 15 1010.1 - 0.2 - Partly cloudy 10 - - - -
28/05:00am 25.8 ESE 8 14 1009.9 - 0.2 - Partly cloudy 10 - - - -
28/04:30am 25.6 ESE 8 11 1009.8 - 0.2 - Partly cloudy 10 - - - -
28/04:00am 25.9 ESE 9 12 1009.9 - 0.2 - Partly cloudy 10 - - - -
28/03:30am 25.8 SE 8 13 1009.9 - 0.2 - Partly cloudy 10 - - - -
28/03:00am 25.8 SE 7 13 1009.8 - 0.2 - Mostly clear 10 - - - -
28/02:30am 25.6 SE 8 11 1009.8 - 0.2 - Partly cloudy 10 - - - -
28/02:00am 25.6 SE 7 11 1009.9 - 0.2 - Partly cloudy 10 - - - -
28/01:30am 25.5 SE 6 10 1010.1 - 0.2 - - 10 - - - -
28/01:00am 25.7 ESE 8 11 1010.4 - 0.2 - Partly cloudy 10 - - - -
28/12:30am 26.0 ESE 9 14 1010.7 - 0.2 - Partly cloudy 10 - - - -
28/12:00am 25.8 ESE 7 13 1011.0 - 0.2 - Mostly clear 10 - - - -
 
Date/Time
EST
Temp

°C
Wind Pressure Rain
since 9am
mm
Weather Cloud Vis
km
Sea
Height
m
Swell
Dir
 
Speed
knots
Gust
knots
hPa Trend Height
m
Period
s
Dir
27/11:30pm 25.8 ESE 8 11 1011.4 - 0.2 - - 10 - - - -
27/11:00pm 26.0 ESE 8 14 1011.4 - 0.2 - - 10 - - - -
27/10:30pm 26.3 ESE 9 17 1011.2 - 0.2 - - 10 - - - -
27/10:00pm 26.0 ESE 8 11 1011.2 - 0.2 - - 10 - - - -
27/09:30pm 26.2 ESE 10 17 1011.2 - 0.2 - Partly cloudy 10 - - - -
27/09:00pm 26.3 ESE 11 15 1011.0 - 0.2 - Mostly clear 10 - - - -
27/08:30pm 26.2 ESE 9 13 1010.9 - 0.2 - Partly cloudy 10 - - - -
27/08:00pm 26.3 ESE 11 15 1010.6 - 0.2 - Partly cloudy 10 - - - -
27/07:30pm 26.2 ESE 8 12 1010.3 - 0.2 - Partly cloudy 10 - - - -
27/07:00pm 26.5 ESE 9 15 1010.1 - 0.2 - Partly cloudy 10 - - - -
27/06:30pm 26.8 ESE 10 15 1010.0 - 0.2 - Partly cloudy 10 - - - -
27/06:00pm 27.5 ESE 12 18 1009.4 - 0.2 - - 10 - - - -
27/05:30pm 28.2 ESE 12 17 1009.6 - 0.2 - - 10 - - - -
27/05:00pm 29.1 ESE 12 19 1009.3 - 0.2 - - 10 - - - -
27/04:30pm 29.5 ESE 14 19 1009.1 - 0.2 - - 10 - - - -
27/04:00pm 30.1 ESE 16 22 1008.9 - 0.2 - - 10 - - - -
27/03:30pm 30.1 SE 14 21 1008.9 - 0.2 - Partly cloudy 10 - - - -
27/03:00pm 30.4 SE 13 22 1009.1 S 0.2 Fine Mostly clear 40 - - - -
27/02:30pm 30.2 ESE 14 19 1009.4 - 0.2 - Partly cloudy 10 - - - -
27/02:00pm 29.1 ESE 12 18 1010.0 - 0.2 - Partly cloudy 10 - - - -
27/01:30pm 30.3 E 16 20 1010.2 - 0.2 - Partly cloudy 10 - - - -
27/01:00pm 29.3 E 15 19 1010.5 - 0.2 - Partly cloudy 10 - - - -
27/12:30pm 30.0 E 14 19 1010.9 - 0.2 - Partly cloudy 10 - - - -
27/12:00pm 31.7 E 17 21 1011.0 - 0.2 - Cloudy 10 - - - -
27/11:30am 29.0 E 14 20 1011.4 - 0.2 - Partly cloudy 10 - - - -
27/11:00am 29.5 ESE 13 20 1011.6 - 0.2 - Partly cloudy 10 - - - -
27/10:30am 29.6 ESE 15 21 1011.8 - 0.2 - Partly cloudy 10 - - - -
27/10:00am 30.2 ESE 16 25 1011.8 - 0.0 - Partly cloudy 10 - - - -
27/09:30am 29.4 E 16 22 1012.0 - 0.0 - Partly cloudy 10 - - - -
27/09:00am 28.9 E 15 20 1011.9 F 0.0 Fine Mostly cloudy 30 - - - -
27/08:30am 29.0 E 13 19 1011.8 - 0.0 - Partly cloudy 10 - - - -
27/08:00am 27.9 ESE 14 20 1011.7 - 0.0 - Partly cloudy 10 - - - -
27/07:30am 27.8 E 13 18 1011.7 - 0.0 - Partly cloudy 10 - - - -
27/07:00am 27.1 ESE 10 15 1011.8 - 0.0 - Partly cloudy 10 - - - -
27/06:30am 26.7 ESE 11 16 1011.6 - 0.0 - Partly cloudy 10 - - - -
27/06:00am 26.1 E 12 17 1011.1 - 0.0 - Mostly cloudy 10 - - - -
27/05:30am 25.7 ESE 10 14 1010.8 - 0.0 - Partly cloudy 10 - - - -
27/05:00am 25.4 ESE 10 15 1010.5 - 0.0 - Partly cloudy 10 - - - -
27/04:30am 25.6 E 11 15 1010.0 - 0.0 - Partly cloudy 10 - - - -
27/04:10am 25.5 E 13 19 1009.9 - 0.0 - Partly cloudy 10 - - - -
27/04:00am 25.7 ESE 9 16 1009.7 - 0.0 - Partly cloudy 10 - - - -
27/03:55am 25.4 E 10 13 1009.7 - 0.0 - Partly cloudy 10 - - - -
27/03:52am 25.7 E 11 16 1009.7 - 0.0 - Partly cloudy 10 - - - -
27/03:42am 25.8 E 12 19 1009.7 - 0.0 - Partly cloudy 10 - - - -
27/03:30am 26.6 E 12 17 1009.8 - 0.0 - Partly cloudy 10 - - - -
27/03:00am 26.2 E 10 14 1009.6 - 0.0 - Partly cloudy 10 - - - -
27/02:30am 26.0 E 9 12 1009.7 - 0.0 - Partly cloudy 10 - - - -
27/02:09am 26.4 E 11 15 1009.7 - 0.0 - Partly cloudy 10 - - - -
27/02:00am 26.5 ESE 11 16 1009.8 - 0.0 - Partly cloudy 10 - - - -
27/01:52am 26.6 ESE 9 13 1009.8 - 0.0 - Partly cloudy 10 - - - -
27/01:30am 26.5 ESE 10 14 1009.9 - 0.0 - Partly cloudy 10 - - - -
27/01:00am 26.9 SE 9 16 1010.1 - 0.0 - Partly cloudy 10 - - - -
27/12:30am 26.7 ESE 10 16 1010.3 - 0.0 - Partly cloudy 10 - - - -
27/12:00am 26.9 ESE 10 17 1010.5 - 0.0 - Cloudy 10 - - - -
 
Date/Time
EST
Temp

°C
Wind Pressure Rain
since 9am
mm
Weather Cloud Vis
km
Sea
Height
m
Swell
Dir
 
Speed
knots
Gust
knots
hPa Trend Height
m
Period
s
Dir
26/11:30pm 26.8 ESE 11 16 1010.9 - 0.0 - Partly cloudy 10 - - - -
26/11:00pm 26.9 ESE 10 15 1011.1 - 0.0 - Partly cloudy 10 - - - -
26/10:30pm 26.8 ESE 11 16 1011.3 - 0.0 - Partly cloudy 10 - - - -
26/10:09pm 26.9 ESE 11 18 1011.4 - 0.0 - Partly cloudy 10 - - - -
26/10:00pm 26.8 ESE 10 14 1011.4 - 0.0 - Partly cloudy 10 - - - -
26/09:30pm 26.7 ESE 10 15 1011.1 - 0.0 - Partly cloudy 10 - - - -
26/09:00pm 26.7 ESE 10 16 1010.8 - 0.0 - Cloudy 9 - - - -
26/08:48pm 26.6 ESE 10 16 1010.8 - 0.0 - Partly cloudy 10 - - - -
26/08:30pm 26.7 ESE 10 15 1010.7 - 0.0 - Partly cloudy 10 - - - -
26/08:00pm 26.7 ESE 10 15 1010.5 - 0.0 - Partly cloudy 10 - - - -
26/07:30pm 27.0 ESE 10 16 1010.4 - 0.0 - Partly cloudy 10 - - - -
26/07:00pm 26.9 ESE 9 15 1010.0 - 0.0 - Partly cloudy 10 - - - -
26/06:30pm 27.1 ESE 11 16 1010.0 - 0.0 - Partly cloudy 10 - - - -
26/06:00pm 27.6 E 12 18 1009.7 - 0.0 - Mostly clear 10 - - - -
26/05:30pm 28.7 ESE 11 15 1009.7 - 0.0 - Partly cloudy 10 - - - -
26/05:00pm 28.6 ESE 13 18 1009.5 - 0.0 - - 10 - - - -
26/04:30pm 28.9 ESE 13 20 1009.3 - 0.0 - Partly cloudy 10 - - - -

Other Formats:

Comma delimited format used in spreadsheet applications
http://www.bom.gov.au/fwo/IDQ60701/IDQ60701.95283.axf

JavaScript Object Notation format (JSON) in row-major order
http://www.bom.gov.au/fwo/IDQ60701/IDQ60701.95283.json